Time;durP1;ratioP1;P1;durP2;ratioP2;P2;SDS_P1;SDS_P2;PMS_P1;PMS_P2;Temp;Humidity;BMP_temperature;BMP_pressure;BME280_temperature;BME280_humidity;BME280_pressure;Samples;Min_cycle;Max_cycle;Signal;HPM_P1;HPM_P2
2022/03/15 00:00:37;;;;;;;29.23;23.33;;;8.40;1.00;;;;;;5130931;27;20773;-85
2022/03/15 00:03:03;;;;;;;28.37;22.10;;;8.50;1.00;;;;;;5125891;27;20487;-84
2022/03/15 00:05:31;;;;;;;27.02;22.08;;;8.50;1.00;;;;;;5133497;27;20433;-84
2022/03/15 00:07:58;;;;;;;27.88;22.42;;;8.50;1.00;;;;;;5132487;27;20207;-85
2022/03/15 00:10:25;;;;;;;27.63;22.83;;;8.50;1.00;;;;;;5140352;27;20219;-84
2022/03/15 00:12:54;;;;;;;28.00;22.80;;;8.50;1.00;;;;;;5129226;27;20219;-84
2022/03/15 00:15:21;;;;;;;26.90;22.40;;;8.50;1.00;;;;;;5128787;27;20571;-85
2022/03/15 00:17:48;;;;;;;24.00;21.33;;;8.50;1.00;;;;;;5108940;27;20297;-85
2022/03/15 00:20:18;;;;;;;24.88;20.73;;;8.50;1.00;;;;;;5124682;27;20233;-85
2022/03/15 00:22:46;;;;;;;28.97;21.37;;;8.50;1.00;;;;;;5127480;27;20223;-85
2022/03/15 00:25:16;;;;;;;25.80;21.05;;;8.50;1.00;;;;;;5135523;27;20460;-85
2022/03/15 00:27:44;;;;;;;26.30;20.70;;;8.50;1.00;;;;;;5128893;27;20848;-83
2022/03/15 00:30:14;;;;;;;26.67;22.15;;;8.50;1.00;;;;;;5127626;27;20939;-83
2022/03/15 00:32:40;;;;;;;28.33;21.63;;;8.40;1.00;;;;;;5124880;27;20219;-85
2022/03/15 00:35:16;;;;;;;25.55;21.10;;;8.40;1.00;;;;;;5128811;27;20460;-85
2022/03/15 00:37:43;;;;;;;28.17;22.33;;;8.40;1.00;;;;;;5128198;27;20227;-85
2022/03/15 00:40:11;;;;;;;27.33;20.87;;;8.30;1.00;;;;;;5125538;27;20219;-86
2022/03/15 00:42:38;;;;;;;29.30;22.40;;;8.30;1.00;;;;;;5124940;27;20573;-84
2022/03/15 00:45:06;;;;;;;27.73;21.30;;;8.30;1.00;;;;;;5122360;27;21520;-84
2022/03/15 00:47:34;;;;;;;27.77;20.75;;;8.30;1.00;;;;;;5125337;27;20320;-84
2022/03/15 00:50:01;;;;;;;28.23;21.53;;;8.30;1.00;;;;;;5139391;27;20215;-86
2022/03/15 00:52:28;;;;;;;28.75;21.52;;;8.30;1.00;;;;;;5127763;27;20588;-85
2022/03/15 00:54:55;;;;;;;28.65;22.75;;;8.30;1.00;;;;;;5122717;27;20227;-85
2022/03/15 00:57:21;;;;;;;26.05;21.17;;;8.30;1.00;;;;;;5127726;27;20235;-85
2022/03/15 00:59:48;;;;;;;26.27;21.67;;;8.30;1.00;;;;;;5126962;27;21590;-85
2022/03/15 01:02:15;;;;;;;24.17;19.33;;;8.30;1.00;;;;;;5128023;27;20467;-85
2022/03/15 01:04:43;;;;;;;27.23;21.40;;;8.30;1.00;;;;;;5127404;27;20259;-85
2022/03/15 01:07:11;;;;;;;26.80;20.30;;;8.30;1.00;;;;;;5127039;27;21039;-84
2022/03/15 01:09:39;;;;;;;27.00;21.97;;;8.30;1.00;;;;;;5147953;27;20211;-84
2022/03/15 01:12:10;;;;;;;26.70;19.98;;;8.30;1.00;;;;;;5147501;27;20409;-83
2022/03/15 01:14:37;;;;;;;28.40;20.20;;;8.40;1.00;;;;;;5149938;27;20223;-83
2022/03/15 01:17:04;;;;;;;25.40;20.30;;;8.30;1.00;;;;;;5142951;27;20453;-84
2022/03/15 01:19:31;;;;;;;27.60;20.47;;;8.30;1.00;;;;;;5126687;27;20787;-84
2022/03/15 01:21:59;;;;;;;28.00;20.90;;;8.30;1.00;;;;;;5123784;27;20462;-84
2022/03/15 01:24:27;;;;;;;25.70;19.80;;;8.20;1.00;;;;;;5129722;27;20453;-84
2022/03/15 01:26:54;;;;;;;30.15;20.42;;;8.20;1.00;;;;;;5127655;27;20211;-84
2022/03/15 01:29:23;;;;;;;25.53;19.07;;;8.20;1.00;;;;;;5136721;27;20223;-84
2022/03/15 01:31:49;;;;;;;25.93;20.27;;;8.20;1.00;;;;;;5127514;27;20456;-84
2022/03/15 01:34:16;;;;;;;23.10;18.65;;;8.20;1.00;;;;;;5126615;27;20462;-85
2022/03/15 01:36:43;;;;;;;23.87;20.10;;;8.20;1.00;;;;;;5128577;27;20307;-84
2022/03/15 01:39:12;;;;;;;26.13;19.53;;;8.20;1.00;;;;;;5126576;27;21236;-84
2022/03/15 01:41:40;;;;;;;26.13;19.50;;;8.20;1.00;;;;;;5105530;27;20466;-84
2022/03/15 01:44:16;;;;;;;27.25;20.33;;;8.10;1.00;;;;;;5140616;27;20546;-84
2022/03/15 01:46:44;;;;;;;28.05;21.30;;;8.10;1.00;;;;;;5127622;27;20646;-84
2022/03/15 01:49:10;;;;;;;27.10;20.97;;;8.00;1.00;;;;;;5123898;27;20265;-84
2022/03/15 01:51:40;;;;;;;26.70;20.60;;;8.00;1.00;;;;;;5127905;27;20456;-85
2022/03/15 01:54:08;;;;;;;25.20;19.95;;;7.90;1.00;;;;;;5131669;27;20465;-84
2022/03/15 01:56:41;;;;;;;25.43;19.37;;;7.90;1.00;;;;;;5129323;27;20245;-85
2022/03/15 01:59:08;;;;;;;25.27;20.07;;;7.90;1.00;;;;;;5133920;27;21052;-84
2022/03/15 02:01:36;;;;;;;24.20;18.90;;;7.90;1.00;;;;;;5142580;27;20442;-84
2022/03/15 02:04:03;;;;;;;23.43;17.87;;;8.00;1.00;;;;;;5140399;27;20485;-85
2022/03/15 02:06:30;;;;;;;28.17;19.58;;;7.90;1.00;;;;;;5136138;27;20490;-84
2022/03/15 02:08:57;;;;;;;24.40;18.70;;;8.00;1.00;;;;;;5131377;27;20226;-85
2022/03/15 02:11:26;;;;;;;26.53;20.37;;;7.90;1.00;;;;;;5129894;27;20469;-85
2022/03/15 02:13:54;;;;;;;24.27;19.02;;;8.00;1.00;;;;;;5154807;27;20476;-83
2022/03/15 02:16:21;;;;;;;26.55;20.40;;;8.00;1.00;;;;;;5153325;27;20211;-84
2022/03/15 02:18:48;;;;;;;25.07;19.23;;;8.00;1.00;;;;;;5155291;27;20275;-83
2022/03/15 02:21:16;;;;;;;28.83;21.33;;;8.10;1.00;;;;;;5155538;27;20386;-84
2022/03/15 02:23:42;;;;;;;29.47;20.27;;;8.10;1.00;;;;;;5154345;27;20424;-83
2022/03/15 02:26:09;;;;;;;26.65;19.70;;;8.10;1.00;;;;;;5143979;27;20420;-83
2022/03/15 02:28:36;;;;;;;24.70;18.90;;;8.20;1.00;;;;;;5154374;27;20261;-83
2022/03/15 02:31:02;;;;;;;26.47;19.57;;;8.10;1.00;;;;;;5157114;27;20393;-84
2022/03/15 02:33:29;;;;;;;24.88;20.38;;;8.10;1.00;;;;;;5154839;27;20640;-84
2022/03/15 02:35:56;;;;;;;27.43;21.20;;;8.00;1.00;;;;;;5133064;27;20219;-84
2022/03/15 02:38:24;;;;;;;29.47;21.10;;;8.00;1.00;;;;;;5154871;27;20476;-84
2022/03/15 02:40:50;;;;;;;26.87;21.07;;;7.90;1.00;;;;;;5154459;27;20452;-83
2022/03/15 02:43:17;;;;;;;28.00;20.77;;;7.90;1.00;;;;;;5142686;27;20412;-83
2022/03/15 02:45:44;;;;;;;29.08;21.85;;;7.90;1.00;;;;;;5155291;27;20397;-83
2022/03/15 02:48:11;;;;;;;28.57;21.83;;;7.90;1.00;;;;;;5161721;27;20286;-83
2022/03/15 02:51:07;;;;;;;27.77;20.33;;;7.90;1.00;;;;;;5152817;27;20453;-84
2022/03/15 02:54:02;;;;;;;29.75;21.00;;;7.90;1.00;;;;;;5156131;27;20408;-83
2022/03/15 02:56:54;;;;;;;29.40;21.35;;;7.90;1.00;;;;;;5156084;27;20226;-84
2022/03/15 02:59:46;;;;;;;26.27;19.77;;;7.80;1.00;;;;;;5154806;27;20287;-83
2022/03/15 03:02:16;;;;;;;27.02;20.80;;;7.90;1.00;;;;;;5153112;27;20199;-82
2022/03/15 03:04:43;;;;;;;30.50;21.20;;;7.90;1.00;;;;;;5153185;27;20246;-82
2022/03/15 03:07:12;;;;;;;29.20;22.10;;;7.90;1.00;;;;;;5149535;27;20218;-82
2022/03/15 03:09:40;;;;;;;28.30;20.97;;;8.00;1.00;;;;;;5153383;27;20235;-83
2022/03/15 03:12:08;;;;;;;26.17;20.17;;;8.00;1.00;;;;;;5153639;27;20462;-82
2022/03/15 03:14:35;;;;;;;28.17;20.15;;;7.90;1.00;;;;;;5151976;27;20434;-81
2022/03/15 03:17:02;;;;;;;30.98;20.40;;;7.90;1.00;;;;;;5148705;27;20937;-83
2022/03/15 03:19:28;;;;;;;28.33;21.00;;;8.00;1.00;;;;;;5151587;27;20221;-83
2022/03/15 03:21:55;;;;;;;28.70;20.65;;;8.00;1.00;;;;;;5152357;27;20429;-84
2022/03/15 03:24:23;;;;;;;26.25;20.17;;;7.90;1.00;;;;;;5150140;27;20259;-84
2022/03/15 03:26:51;;;;;;;28.00;21.37;;;7.90;1.00;;;;;;5145383;27;20215;-84
2022/03/15 03:29:18;;;;;;;27.57;20.70;;;7.80;1.00;;;;;;5128678;27;20555;-85
2022/03/15 03:31:44;;;;;;;27.17;20.52;;;7.80;1.00;;;;;;5147396;27;20429;-84
2022/03/15 03:34:12;;;;;;;28.30;20.42;;;7.80;1.00;;;;;;5126327;27;21198;-82
2022/03/15 03:36:40;;;;;;;29.33;22.45;;;7.70;1.00;;;;;;5139428;27;20223;-84
2022/03/15 03:39:08;;;;;;;29.00;20.37;;;7.70;1.00;;;;;;5129117;27;20286;-84
2022/03/15 03:41:35;;;;;;;28.93;21.93;;;7.70;1.00;;;;;;5133749;27;20434;-84
2022/03/15 03:44:03;;;;;;;30.55;21.90;;;7.70;1.00;;;;;;5122832;27;20469;-84
2022/03/15 03:46:31;;;;;;;30.65;21.58;;;7.70;1.00;;;;;;5127803;27;20234;-84
2022/03/15 03:48:58;;;;;;;30.30;22.60;;;7.70;1.00;;;;;;5120062;27;20254;-84
2022/03/15 03:51:24;;;;;;;28.73;21.23;;;7.60;1.00;;;;;;5114818;27;20234;-84
2022/03/15 03:53:51;;;;;;;28.90;22.33;;;7.60;1.00;;;;;;5118910;27;20219;-84
2022/03/15 03:56:18;;;;;;;31.05;23.02;;;7.60;1.00;;;;;;5121706;27;20219;-83
2022/03/15 03:58:45;;;;;;;29.30;23.20;;;7.60;1.00;;;;;;5118788;27;20235;-83
2022/03/15 04:01:13;;;;;;;33.25;25.00;;;7.60;1.00;;;;;;5118282;27;20223;-83
2022/03/15 04:03:39;;;;;;;30.90;24.05;;;7.50;1.00;;;;;;5124321;27;20325;-84
2022/03/15 04:06:06;;;;;;;34.30;26.02;;;7.40;1.00;;;;;;5102499;27;20231;-83
2022/03/15 04:08:33;;;;;;;35.92;25.23;;;7.30;1.00;;;;;;5125034;27;20227;-83
2022/03/15 04:11:00;;;;;;;35.60;26.17;;;7.10;1.00;;;;;;5135227;27;20309;-82
2022/03/15 04:13:27;;;;;;;29.27;25.50;;;7.00;1.00;;;;;;5143365;27;20224;-83
2022/03/15 04:15:54;;;;;;;35.83;26.48;;;6.90;1.00;;;;;;5143577;27;20248;-83
2022/03/15 04:18:22;;;;;;;41.60;27.05;;;6.80;1.00;;;;;;5122275;27;20235;-82
2022/03/15 04:20:50;;;;;;;38.92;28.70;;;6.80;1.00;;;;;;5129806;27;20223;-83
2022/03/15 04:23:17;;;;;;;49.47;30.95;;;6.80;1.00;;;;;;5135333;27;20223;-82
2022/03/15 04:25:44;;;;;;;50.25;33.25;;;6.80;1.00;;;;;;5141719;27;20223;-82
2022/03/15 04:28:11;;;;;;;50.97;32.50;;;6.70;1.00;;;;;;5118932;27;21390;-83
2022/03/15 04:30:38;;;;;;;49.72;32.70;;;6.70;1.00;;;;;;5122953;27;20456;-84
2022/03/15 04:33:05;;;;;;;57.70;32.63;;;6.70;1.00;;;;;;5125458;27;20245;-84
2022/03/15 04:35:34;;;;;;;58.25;35.50;;;6.70;1.00;;;;;;5120663;27;20366;-84
2022/03/15 04:38:01;;;;;;;49.53;33.20;;;6.70;1.00;;;;;;5116631;27;21063;-83
2022/03/15 04:40:27;;;;;;;45.72;32.80;;;6.70;1.00;;;;;;5120044;27;20231;-83
2022/03/15 04:42:56;;;;;;;56.00;35.28;;;6.70;1.00;;;;;;5113383;27;20214;-83
2022/03/15 04:45:24;;;;;;;59.50;35.30;;;6.70;1.00;;;;;;5126374;27;20214;-84
2022/03/15 04:47:51;;;;;;;53.30;34.90;;;6.70;1.00;;;;;;5125530;27;20243;-83
2022/03/15 04:50:18;;;;;;;69.13;37.75;;;6.70;1.00;;;;;;5130467;27;20497;-83
2022/03/15 04:52:46;;;;;;;62.40;35.55;;;6.80;1.00;;;;;;5146209;27;20215;-83
2022/03/15 04:55:13;;;;;;;78.57;39.42;;;6.80;1.00;;;;;;5129171;27;20338;-83
2022/03/15 04:57:39;;;;;;;78.22;40.15;;;6.70;1.00;;;;;;5145811;27;20254;-83
2022/03/15 05:00:10;;;;;;;80.45;39.85;;;6.70;1.00;;;;;;5126164;27;20231;-83
2022/03/15 05:02:40;;;;;;;66.75;39.25;;;6.70;1.00;;;;;;5114151;27;20219;-83
2022/03/15 05:05:07;;;;;;;61.65;36.97;;;6.70;1.00;;;;;;5121256;27;20223;-85
2022/03/15 05:07:34;;;;;;;73.88;40.92;;;6.60;1.00;;;;;;5121060;27;20242;-83
2022/03/15 05:12:47;;;;;;;79.50;39.50;;;6.60;1.00;;;;;;5125374;27;20215;-84
2022/03/15 05:15:14;;;;;;;83.05;40.67;;;6.60;1.00;;;;;;5121804;27;20227;-84
2022/03/15 05:17:41;;;;;;;87.45;42.78;;;6.50;1.00;;;;;;5123063;27;20282;-84
2022/03/15 05:20:10;;;;;;;83.35;44.15;;;6.50;1.00;;;;;;5123177;27;20220;-85
2022/03/15 05:22:37;;;;;;;92.55;44.50;;;6.40;1.00;;;;;;5120218;27;20219;-85
2022/03/15 05:25:06;;;;;;;89.18;45.20;;;6.40;1.00;;;;;;5125852;27;20223;-86
2022/03/15 05:27:34;;;;;;;96.22;44.53;;;6.40;1.00;;;;;;5125247;27;20640;-86
2022/03/15 05:30:00;;;;;;;88.20;43.63;;;6.40;1.00;;;;;;5121547;27;20268;-83
2022/03/15 05:32:27;;;;;;;89.20;42.25;;;6.50;1.00;;;;;;5124928;27;20248;-84
2022/03/15 05:34:55;;;;;;;83.32;42.60;;;6.50;1.00;;;;;;5115213;27;20294;-83
2022/03/15 05:37:22;;;;;;;74.68;39.65;;;6.40;1.00;;;;;;5127306;27;20242;-83
2022/03/15 05:39:49;;;;;;;60.63;36.88;;;6.40;1.00;;;;;;5115972;27;20230;-83
2022/03/15 05:42:18;;;;;;;73.95;36.97;;;6.50;1.00;;;;;;5118788;27;20271;-84
2022/03/15 05:44:45;;;;;;;64.80;35.70;;;6.40;1.00;;;;;;5116663;27;20732;-84
2022/03/15 05:47:12;;;;;;;53.15;30.67;;;6.50;1.00;;;;;;5125572;27;20249;-84
2022/03/15 05:49:38;;;;;;;97.15;33.65;;;6.40;1.00;;;;;;5123950;27;20343;-85
2022/03/15 05:52:07;;;;;;;64.65;34.97;;;6.40;1.00;;;;;;5114360;27;20789;-84
2022/03/15 05:54:35;;;;;;;77.25;35.00;;;6.30;1.00;;;;;;5132498;27;20218;-85
2022/03/15 05:57:02;;;;;;;131.75;39.83;;;6.30;1.00;;;;;;5123868;27;20246;-85
2022/03/15 05:59:30;;;;;;;73.65;33.65;;;6.40;1.00;;;;;;5130862;27;21485;-85
2022/03/15 06:01:57;;;;;;;81.53;34.88;;;6.30;1.00;;;;;;5141952;27;20217;-84
2022/03/15 06:04:26;;;;;;;82.90;34.75;;;6.30;1.00;;;;;;5126806;27;20226;-83
2022/03/15 06:06:55;;;;;;;81.40;35.20;;;6.30;1.00;;;;;;5120358;27;20258;-83
2022/03/15 06:09:23;;;;;;;95.20;36.95;;;6.30;1.00;;;;;;5128375;27;20215;-85
2022/03/15 06:11:54;;;;;;;56.15;31.83;;;6.30;1.00;;;;;;5112547;27;20262;-82
2022/03/15 06:14:22;;;;;;;63.63;36.53;;;6.30;1.00;;;;;;5142615;27;20222;-82
2022/03/15 06:16:50;;;;;;;64.73;34.40;;;6.30;1.00;;;;;;5145179;27;20222;-84
2022/03/15 06:19:17;;;;;;;55.45;35.05;;;6.40;1.00;;;;;;5131441;27;20241;-83
2022/03/15 06:21:44;;;;;;;55.88;35.70;;;6.40;1.00;;;;;;5123965;27;20803;-83
2022/03/15 06:24:11;;;;;;;62.15;37.67;;;6.40;1.00;;;;;;5133672;27;20259;-82
2022/03/15 06:26:41;;;;;;;62.95;38.60;;;6.60;1.00;;;;;;5133203;27;20219;-79
2022/03/15 06:29:08;;;;;;;73.57;44.40;;;6.60;1.00;;;;;;5125911;27;20231;-83
2022/03/15 06:31:35;;;;;;;73.18;42.05;;;6.70;1.00;;;;;;5114878;27;20223;-83
2022/03/15 06:34:05;;;;;;;71.85;44.70;;;6.60;1.00;;;;;;5119115;27;20234;-82
2022/03/15 06:36:34;;;;;;;61.00;35.35;;;6.60;1.00;;;;;;5108374;27;20308;-84
2022/03/15 06:39:02;;;;;;;62.28;38.13;;;6.70;1.00;;;;;;5108342;27;20318;-83
2022/03/15 06:41:29;;;;;;;64.53;36.67;;;6.70;1.00;;;;;;5125379;27;20215;-83
2022/03/15 06:43:57;;;;;;;66.43;35.85;;;6.70;1.00;;;;;;5128467;27;20234;-85
2022/03/15 06:46:24;;;;;;;54.83;35.25;;;6.70;1.00;;;;;;5131292;27;20296;-84
2022/03/15 06:48:51;;;;;;;66.70;34.47;;;6.80;1.00;;;;;;5131579;27;20229;-85
2022/03/15 06:51:20;;;;;;;52.75;33.22;;;6.80;1.00;;;;;;5131553;27;20857;-83
2022/03/15 06:53:50;;;;;;;56.92;33.15;;;6.90;1.00;;;;;;5135130;27;20223;-82
2022/03/15 06:56:17;;;;;;;43.33;28.90;;;7.00;1.00;;;;;;5140457;27;20253;-82
2022/03/15 06:58:48;;;;;;;44.95;30.65;;;7.00;1.00;;;;;;5138744;27;20231;-82
2022/03/15 07:01:15;;;;;;;48.60;32.42;;;7.00;1.00;;;;;;5131110;27;20370;-82
2022/03/15 07:03:42;;;;;;;45.35;31.02;;;7.00;1.00;;;;;;5142242;27;20260;-83
2022/03/15 07:06:08;;;;;;;50.88;30.80;;;7.10;1.00;;;;;;5137574;27;20227;-82
2022/03/15 07:08:36;;;;;;;51.30;32.58;;;7.20;1.00;;;;;;5131325;27;20266;-81
2022/03/15 07:11:03;;;;;;;48.03;32.97;;;7.20;1.00;;;;;;5136030;27;20231;-81
2022/03/15 07:13:30;;;;;;;45.03;33.10;;;7.20;1.00;;;;;;5139695;27;20299;-84
2022/03/15 07:15:57;;;;;;;48.33;33.35;;;7.30;1.00;;;;;;5140724;27;20287;-82
2022/03/15 07:18:24;;;;;;;43.97;34.10;;;7.50;1.00;;;;;;5101911;27;20230;-83
2022/03/15 07:20:51;;;;;;;52.45;34.67;;;7.60;1.00;;;;;;5138014;27;20782;-84
2022/03/15 07:23:18;;;;;;;49.17;34.53;;;7.70;1.00;;;;;;5135232;27;20319;-81
2022/03/15 07:25:46;;;;;;;46.72;33.55;;;7.80;1.00;;;;;;5140219;27;20218;-81
2022/03/15 07:28:13;;;;;;;47.70;32.38;;;7.90;1.00;;;;;;5119903;27;21275;-83
2022/03/15 07:30:40;;;;;;;41.42;30.83;;;7.90;1.00;;;;;;5130906;27;20592;-80
2022/03/15 07:33:07;;;;;;;44.97;30.20;;;8.00;1.00;;;;;;5142786;27;20226;-81
2022/03/15 07:35:34;;;;;;;41.08;30.23;;;8.00;1.00;;;;;;5136606;27;20461;-83
2022/03/15 07:38:01;;;;;;;41.67;31.35;;;8.10;1.00;;;;;;5130148;27;20295;-79
2022/03/15 07:40:28;;;;;;;38.67;31.15;;;8.10;1.00;;;;;;5121885;27;20227;-79
2022/03/15 07:42:57;;;;;;;44.47;30.48;;;8.10;1.00;;;;;;5120721;27;20215;-86
2022/03/15 07:45:24;;;;;;;40.53;32.08;;;8.10;1.00;;;;;;5110674;27;20286;-79
2022/03/15 07:47:50;;;;;;;37.22;29.10;;;8.20;1.00;;;;;;5112458;27;20223;-82
2022/03/15 07:50:18;;;;;;;39.80;29.63;;;8.30;1.00;;;;;;5117191;27;20721;-82
2022/03/15 07:52:46;;;;;;;41.92;29.70;;;8.40;1.00;;;;;;5119559;27;20219;-82
2022/03/15 07:55:13;;;;;;;40.97;31.47;;;8.50;1.00;;;;;;5114627;27;20234;-81
2022/03/15 07:57:39;;;;;;;40.42;29.33;;;8.60;1.00;;;;;;5117843;27;20497;-79
2022/03/15 08:00:09;;;;;;;36.33;29.30;;;8.80;1.00;;;;;;5125961;27;20318;-80
2022/03/15 08:02:36;;;;;;;36.80;28.97;;;8.90;1.00;;;;;;5125729;27;20223;-86
2022/03/15 08:05:03;;;;;;;49.57;33.30;;;9.00;1.00;;;;;;5125744;27;20422;-85
2022/03/15 08:07:29;;;;;;;41.40;29.50;;;9.10;1.00;;;;;;5130887;27;20460;-85
2022/03/15 08:09:57;;;;;;;40.97;29.63;;;9.30;1.00;;;;;;5140436;27;20398;-80
2022/03/15 08:12:26;;;;;;;37.55;27.40;;;9.30;1.00;;;;;;5156607;27;20203;-88
2022/03/15 08:14:53;;;;;;;43.93;29.40;;;9.30;1.00;;;;;;5153976;27;20234;-83
2022/03/15 08:17:42;;;;;;;43.73;28.27;;;9.40;1.00;;;;;;5145939;27;20460;-90
2022/03/15 08:23:17;;;;;;;39.00;27.40;;;9.70;1.00;;;;;;5137470;27;20436;-86
2022/03/15 08:26:04;;;;;;;40.17;30.30;;;9.80;1.00;;;;;;5131680;27;20432;-86
2022/03/15 08:57:08;;;;;;;42.73;29.73;;;11.70;1.00;;;;;;5079037;28;20466;-85
2022/03/15 08:59:35;;;;;;;35.70;28.77;;;11.80;1.00;;;;;;5066865;28;20505;-85
2022/03/15 09:02:02;;;;;;;38.53;28.93;;;11.90;1.00;;;;;;5076439;28;20547;-84
2022/03/15 09:04:30;;;;;;;42.87;31.07;;;12.00;1.00;;;;;;5073890;28;20513;-87
2022/03/15 09:06:56;;;;;;;40.37;31.77;;;12.10;1.00;;;;;;5064836;28;20524;-85
2022/03/15 09:09:25;;;;;;;42.27;29.77;;;12.30;1.00;;;;;;5075878;28;20464;-85
2022/03/15 09:11:52;;;;;;;36.23;29.47;;;12.60;1.00;;;;;;5079475;28;20443;-85
2022/03/15 09:14:20;;;;;;;35.23;29.63;;;12.90;1.00;;;;;;5074719;28;20546;-87
2022/03/15 09:16:47;;;;;;;36.90;29.93;;;13.20;1.00;;;;;;5077946;28;21334;-86
2022/03/15 09:19:14;;;;;;;34.23;28.40;;;13.60;1.00;;;;;;5074423;28;20992;-81
2022/03/15 09:21:41;;;;;;;33.70;28.10;;;14.20;1.00;;;;;;5070967;28;20507;-82
2022/03/15 09:24:08;;;;;;;41.50;27.90;;;15.20;1.00;;;;;;5067931;28;20459;-82
2022/03/15 09:26:36;;;;;;;30.57;26.60;;;16.50;1.00;;;;;;5055836;28;22032;-82
2022/03/15 09:29:03;;;;;;;34.50;26.37;;;17.50;1.00;;;;;;5064870;28;20528;-82
2022/03/15 09:31:31;;;;;;;28.57;25.23;;;18.30;1.00;;;;;;5073376;28;20815;-81
2022/03/15 09:33:57;;;;;;;30.60;25.20;;;19.20;1.00;;;;;;5076343;28;20566;-82
2022/03/15 09:36:24;;;;;;;28.03;23.10;;;19.90;1.00;;;;;;5073467;28;20468;-82
2022/03/15 09:38:51;;;;;;;27.70;23.40;;;20.50;1.00;;;;;;5067196;28;20474;-81
2022/03/15 09:41:19;;;;;;;23.80;20.43;;;20.90;1.00;;;;;;5051537;28;20451;-81
2022/03/15 09:43:47;;;;;;;24.30;21.70;;;21.20;1.00;;;;;;5049301;28;20531;-81
2022/03/15 09:46:15;;;;;;;28.43;23.00;;;20.90;1.00;;;;;;5063430;28;20458;-80
2022/03/15 09:48:45;;;;;;;27.67;21.30;;;20.50;1.00;;;;;;5058907;28;20453;-81
2022/03/15 09:51:14;;;;;;;27.73;22.23;;;20.60;1.00;;;;;;5069069;28;20465;-81
2022/03/15 09:53:42;;;;;;;25.30;19.67;;;20.40;1.00;;;;;;5075795;28;20431;-82
2022/03/15 09:56:09;;;;;;;21.90;19.60;;;20.40;1.00;;;;;;5072747;28;20528;-81
2022/03/15 09:58:36;;;;;;;21.40;19.00;;;19.90;1.00;;;;;;5073494;28;20521;-82
2022/03/15 10:01:03;;;;;;;24.60;19.77;;;19.80;1.00;;;;;;5073322;28;20473;-81
2022/03/15 10:03:30;;;;;;;24.77;20.90;;;19.80;1.00;;;;;;5079512;28;20645;-79
2022/03/15 10:05:58;;;;;;;26.17;20.30;;;19.60;1.00;;;;;;5087527;27;20479;-79
2022/03/15 10:08:25;;;;;;;29.07;20.53;;;19.00;1.00;;;;;;5092564;27;20502;-80
2022/03/15 10:10:53;;;;;;;28.90;21.80;;;18.70;1.00;;;;;;5084553;27;20427;-80
2022/03/15 10:13:21;;;;;;;25.83;20.23;;;18.70;1.00;;;;;;5073582;28;20451;-79
2022/03/15 10:15:52;;;;;;;28.60;19.70;;;18.70;1.00;;;;;;5075644;28;20443;-81
2022/03/15 10:18:20;;;;;;;26.53;19.53;;;18.60;1.00;;;;;;5068987;28;20466;-80
2022/03/15 10:20:48;;;;;;;24.30;19.03;;;18.50;1.00;;;;;;5066619;28;20474;-80
2022/03/15 10:23:19;;;;;;;21.10;17.80;;;18.80;1.00;;;;;;5076298;28;20447;-81
2022/03/15 10:25:50;;;;;;;22.70;18.93;;;19.00;1.00;;;;;;5074506;28;20443;-80
2022/03/15 10:28:18;;;;;;;24.53;17.87;;;19.00;1.00;;;;;;5078588;28;20411;-80
2022/03/15 10:30:46;;;;;;;22.20;19.20;;;19.30;1.00;;;;;;5078640;28;20459;-82
2022/03/15 10:33:14;;;;;;;21.40;19.10;;;19.40;1.00;;;;;;5079266;28;20447;-82
2022/03/15 10:35:43;;;;;;;21.03;17.63;;;19.80;1.00;;;;;;5073512;28;20624;-82
2022/03/15 10:38:10;;;;;;;21.20;17.20;;;20.40;1.00;;;;;;5077171;28;20810;-82
2022/03/15 10:40:41;;;;;;;22.40;20.00;;;21.00;1.00;;;;;;5076878;28;20455;-83
2022/03/15 10:43:10;;;;;;;21.63;19.30;;;21.90;1.00;;;;;;5080300;28;20419;-81
2022/03/15 10:45:40;;;;;;;21.23;19.00;;;22.50;1.00;;;;;;5077669;28;21297;-83
2022/03/15 10:48:18;;;;;;;20.37;18.17;;;22.80;1.00;;;;;;5074295;28;21326;-81
2022/03/15 10:51:05;;;;;;;23.97;17.20;;;23.60;1.00;;;;;;5077474;28;21559;-83
2022/03/15 10:53:38;;;;;;;21.50;17.47;;;23.80;1.00;;;;;;5079759;28;20450;-81
2022/03/15 10:56:15;;;;;;;19.17;17.00;;;23.10;1.00;;;;;;5077871;28;20419;-78
2022/03/15 10:58:46;;;;;;;19.30;16.87;;;22.00;1.00;;;;;;5083641;28;20469;-80
2022/03/15 11:01:14;;;;;;;19.53;17.37;;;21.90;1.00;;;;;;5084233;28;20419;-79
2022/03/15 11:03:40;;;;;;;19.40;16.77;;;21.60;1.00;;;;;;5077121;28;20539;-80
2022/03/15 11:06:08;;;;;;;20.07;16.97;;;21.10;1.00;;;;;;5076683;28;20462;-80
2022/03/15 11:08:36;;;;;;;21.40;15.93;;;20.30;1.00;;;;;;5086523;28;20422;-79
2022/03/15 11:11:06;;;;;;;18.93;16.77;;;19.90;1.00;;;;;;5089520;28;20411;-79
2022/03/15 11:13:35;;;;;;;18.93;15.87;;;20.00;1.00;;;;;;5105368;27;20405;-78
2022/03/15 11:16:06;;;;;;;17.13;15.43;;;20.00;1.00;;;;;;5105379;27;20416;-79
2022/03/15 11:18:34;;;;;;;19.97;16.60;;;19.90;1.00;;;;;;5085499;28;20451;-79
2022/03/15 11:21:05;;;;;;;17.67;15.60;;;19.40;1.00;;;;;;5071264;28;20463;-77
2022/03/15 11:23:38;;;;;;;18.33;15.13;;;19.00;1.00;;;;;;5069695;28;21029;-79
2022/03/15 11:26:06;;;;;;;21.20;16.70;;;18.80;1.00;;;;;;5068815;28;20481;-79
2022/03/15 11:28:37;;;;;;;21.10;17.63;;;18.60;1.00;;;;;;5068739;28;20977;-79
2022/03/15 11:31:04;;;;;;;17.33;15.53;;;18.50;1.00;;;;;;5066207;28;20903;-78
2022/03/15 11:33:31;;;;;;;21.50;18.00;;;18.40;1.00;;;;;;5067672;28;20577;-79
2022/03/15 11:36:01;;;;;;;17.83;15.93;;;18.50;1.00;;;;;;5064232;28;20462;-79
2022/03/15 11:38:28;;;;;;;19.97;16.97;;;18.80;1.00;;;;;;5055574;28;20442;-79
2022/03/15 11:40:56;;;;;;;24.50;17.17;;;19.00;1.00;;;;;;5071098;28;20495;-80
2022/03/15 11:43:37;;;;;;;17.97;15.20;;;18.60;1.00;;;;;;5067634;28;20467;-81
2022/03/15 11:46:13;;;;;;;18.30;15.87;;;18.30;1.00;;;;;;5074831;28;20458;-81
2022/03/15 11:48:46;;;;;;;20.03;16.00;;;18.60;1.00;;;;;;5075790;28;20539;-79
2022/03/15 11:51:27;;;;;;;21.27;18.80;;;18.90;1.00;;;;;;5079074;28;20459;-80
2022/03/15 11:54:01;;;;;;;22.13;16.70;;;19.40;1.00;;;;;;5078477;28;20403;-78
2022/03/15 11:56:35;;;;;;;21.47;17.60;;;19.60;1.00;;;;;;5098107;28;20433;-79
2022/03/15 11:59:02;;;;;;;21.37;18.90;;;19.70;1.00;;;;;;5090283;27;21042;-81
2022/03/15 12:01:30;;;;;;;22.00;18.17;;;19.50;1.00;;;;;;5072865;28;21327;-79
2022/03/15 12:03:59;;;;;;;19.50;16.57;;;19.60;1.00;;;;;;5070173;28;21291;-81
2022/03/15 12:06:27;;;;;;;23.33;18.27;;;19.30;1.00;;;;;;5064045;28;20757;-82
2022/03/15 12:08:57;;;;;;;21.10;18.90;;;18.80;1.00;;;;;;5067441;28;20474;-82
2022/03/15 12:11:34;;;;;;;20.23;18.13;;;18.80;1.00;;;;;;5047808;28;20447;-81
2022/03/15 12:14:05;;;;;;;20.93;18.13;;;18.90;1.00;;;;;;5070157;28;21796;-82
2022/03/15 12:16:37;;;;;;;21.60;17.27;;;19.10;1.00;;;;;;5071960;28;20432;-82
2022/03/15 12:19:13;;;;;;;20.90;17.10;;;19.30;1.00;;;;;;5074899;28;20466;-82
2022/03/15 12:21:49;;;;;;;20.80;17.70;;;19.50;1.00;;;;;;5066538;28;20539;-81
2022/03/15 12:24:18;;;;;;;22.47;19.47;;;19.60;1.00;;;;;;5070089;28;23034;-81
2022/03/15 12:26:48;;;;;;;19.23;17.20;;;19.50;1.00;;;;;;5067928;28;20570;-81
2022/03/15 12:29:15;;;;;;;22.57;17.47;;;19.00;1.00;;;;;;5071711;28;20493;-82
2022/03/15 12:31:45;;;;;;;21.80;18.30;;;19.00;1.00;;;;;;5069617;28;21278;-84
2022/03/15 12:34:14;;;;;;;22.90;19.10;;;19.00;1.00;;;;;;5071569;28;20575;-84
2022/03/15 12:36:49;;;;;;;22.23;18.70;;;19.00;1.00;;;;;;5070115;28;21274;-84
2022/03/15 12:39:18;;;;;;;19.73;17.60;;;18.90;1.00;;;;;;5072357;28;20592;-84
2022/03/15 12:41:46;;;;;;;23.50;18.27;;;19.20;1.00;;;;;;5065482;28;20728;-83
2022/03/15 12:44:13;;;;;;;21.53;17.63;;;19.30;1.00;;;;;;5073182;28;20477;-84
2022/03/15 12:46:43;;;;;;;22.50;17.33;;;19.50;1.00;;;;;;5069689;28;20501;-82
2022/03/15 12:49:12;;;;;;;18.70;16.67;;;19.90;1.00;;;;;;5075663;28;20471;-84
2022/03/15 12:51:41;;;;;;;19.03;16.50;;;19.20;1.00;;;;;;5070585;28;21817;-83
2022/03/15 12:54:11;;;;;;;18.57;16.10;;;18.70;1.00;;;;;;5065075;28;20451;-83
2022/03/15 12:56:43;;;;;;;21.20;14.43;;;18.30;1.00;;;;;;5072219;28;20450;-83
2022/03/15 12:59:22;;;;;;;18.10;15.93;;;18.10;1.00;;;;;;5074252;28;21380;-83
2022/03/15 13:01:51;;;;;;;21.47;18.00;;;17.90;1.00;;;;;;5072177;28;21198;-83
2022/03/15 13:04:19;;;;;;;20.07;17.97;;;18.00;1.00;;;;;;5079698;28;20451;-83
2022/03/15 13:06:48;;;;;;;20.80;18.13;;;18.20;1.00;;;;;;5085651;28;20412;-80
2022/03/15 13:09:24;;;;;;;21.80;16.80;;;18.30;1.00;;;;;;5087915;28;20873;-80
2022/03/15 13:11:51;;;;;;;19.67;16.80;;;18.60;1.00;;;;;;5086053;28;20479;-80
2022/03/15 13:14:23;;;;;;;22.90;19.70;;;18.80;1.00;;;;;;5070342;28;20435;-79
2022/03/15 13:16:51;;;;;;;21.63;17.07;;;18.80;1.00;;;;;;5074152;28;20499;-79
2022/03/15 13:19:26;;;;;;;19.80;16.90;;;18.80;1.00;;;;;;5071474;28;20464;-81
2022/03/15 13:21:53;;;;;;;22.13;17.30;;;18.50;1.00;;;;;;5069436;28;20537;-80
2022/03/15 13:24:23;;;;;;;19.53;16.40;;;18.50;1.00;;;;;;5072671;28;20452;-80